Main page
METAR-TAF:

METAR-TAF

Airports :

Forest City Municipal Airport

Forest City, Iowa, United States

latitude: 43-14-05N, longitude: 093-37-27W, elevation: 1230 ft

Current weather observation

The report was made 20 minutes ago, at 21:35 UTC
Wind 17 mph from the South/Southeast with gusts up to 24 mph
Temperature 57°F
Humidity 55%
Pressure 29.91 in. Hg
Visibility: 10 miles
Clear sky

METAR: KFXY 012135Z AUTO 15015G21KT 10SM CLR 14/05 A2991 RMK AO2

Time: 16:55 (21:55 UTC)


TAF: missing

Weather observations and forecasts of more than 4000 airports (METAR and TAF reports).

The available stations are represented by yellow and red dots on the map.

Hover mouse over dot to see the name of the station.

Then click to see weather observations and forecasts.

To change the map : click on the green buttons with a black cross to zoom in, on the green button with a dash to zoom out, or on the green arrows for adjacent maps.


METAR-TAF: